createdAt,value
2018-08-04T09:43:23.494Z,3.83
2018-08-04T09:45:51.562Z,3.50
2018-08-04T09:48:19.593Z,3.25
2018-08-04T09:50:47.689Z,4.00
2018-08-04T09:53:15.768Z,3.70
2018-08-04T09:55:43.851Z,3.67
2018-08-04T09:58:12.990Z,3.60
2018-08-04T10:00:46.503Z,3.67
2018-08-04T10:03:14.590Z,4.00
2018-08-04T10:05:42.703Z,5.08
2018-08-04T10:08:10.778Z,4.15
2018-08-04T10:10:38.870Z,4.37
2018-08-04T10:13:06.975Z,3.70
2018-08-04T10:15:35.093Z,3.70
2018-08-04T10:18:03.151Z,3.30
2018-08-04T10:20:31.210Z,3.50
2018-08-04T10:22:59.276Z,3.50
2018-08-04T10:25:27.373Z,3.58
2018-08-04T10:27:55.470Z,3.70
2018-08-04T10:30:23.566Z,3.80
2018-08-04T10:32:51.634Z,3.98
2018-08-04T10:35:19.720Z,4.00
2018-08-04T10:37:47.806Z,3.62
2018-08-04T10:40:15.902Z,4.10
2018-08-04T10:42:44.008Z,4.33
2018-08-04T10:45:12.081Z,4.05
2018-08-04T10:47:40.144Z,4.45
2018-08-04T10:50:08.276Z,4.55
2018-08-04T10:52:37.272Z,3.58
2018-08-04T10:55:05.622Z,3.77
2018-08-04T10:57:33.513Z,3.90
2018-08-04T11:00:01.588Z,4.10
2018-08-04T11:02:30.016Z,3.80
2018-08-04T11:04:58.084Z,3.98
2018-08-04T11:07:26.127Z,3.83
2018-08-04T11:09:54.248Z,4.15
2018-08-04T11:12:22.426Z,5.15
2018-08-04T11:14:50.580Z,4.15
2018-08-04T11:17:18.673Z,3.65
2018-08-04T11:19:46.791Z,4.20
2018-08-04T11:22:14.861Z,4.30
2018-08-04T11:24:42.962Z,4.08
2018-08-04T11:27:11.035Z,3.87
2018-08-04T11:29:39.183Z,4.08
2018-08-04T11:32:07.253Z,4.05
2018-08-04T11:34:35.371Z,4.08
2018-08-04T11:37:03.461Z,3.70
2018-08-04T11:39:31.555Z,3.90
2018-08-04T11:41:59.696Z,4.58
2018-08-04T11:44:27.783Z,4.00
2018-08-04T11:46:55.888Z,4.08
2018-08-04T11:49:24.019Z,4.20
2018-08-04T11:51:52.113Z,3.98
2018-08-04T11:54:20.261Z,4.15
2018-08-04T11:56:48.372Z,3.70
2018-08-04T11:59:16.411Z,3.65
2018-08-04T12:01:44.492Z,3.92
2018-08-04T12:04:12.583Z,3.83
2018-08-04T12:06:40.671Z,4.28
2018-08-04T12:09:10.915Z,4.22
2018-08-04T12:11:38.996Z,3.83
2018-08-04T12:14:07.626Z,3.92
2018-08-04T12:16:36.750Z,4.00
2018-08-04T12:19:05.057Z,3.65
2018-08-04T12:21:33.186Z,3.65
2018-08-04T12:24:01.304Z,3.80
2018-08-04T12:26:29.399Z,3.60
2018-08-04T12:28:57.457Z,3.85
2018-08-04T12:31:25.872Z,4.00
2018-08-04T12:33:54.066Z,4.22
2018-08-04T12:36:22.216Z,4.37
2018-08-04T12:38:50.322Z,4.03
2018-08-04T12:41:18.399Z,3.75
2018-08-04T12:43:46.595Z,3.90
2018-08-04T12:46:14.686Z,3.85
2018-08-04T12:48:42.763Z,4.08
2018-08-04T12:51:10.863Z,4.15
2018-08-04T12:53:38.946Z,3.85
2018-08-04T12:56:07.093Z,4.05
2018-08-04T12:58:35.191Z,4.03
2018-08-04T13:01:03.276Z,3.85
2018-08-04T13:03:31.439Z,4.10
2018-08-04T13:05:59.546Z,4.17
2018-08-04T13:08:27.604Z,3.95
2018-08-04T13:10:55.678Z,4.22
2018-08-04T13:13:23.768Z,4.45
2018-08-04T13:15:51.849Z,4.12
2018-08-04T13:18:19.915Z,4.17
2018-08-04T13:20:47.991Z,4.15
2018-08-04T13:23:16.044Z,4.28
2018-08-04T13:25:44.123Z,4.20
2018-08-04T13:28:12.199Z,4.03
2018-08-04T13:30:40.325Z,4.08
2018-08-04T13:33:08.419Z,4.62
2018-08-04T13:35:36.537Z,4.37
2018-08-04T13:38:04.642Z,4.22
2018-08-04T13:40:33.230Z,4.10
2018-08-04T13:43:01.129Z,4.22
2018-08-04T13:45:29.264Z,4.62
2018-08-04T13:47:57.441Z,4.20
2018-08-04T13:50:25.583Z,4.20
2018-08-04T13:52:53.588Z,4.30
2018-08-04T13:55:21.648Z,4.33
2018-08-04T13:57:49.750Z,4.10
2018-08-04T14:00:17.816Z,4.35
2018-08-04T14:02:45.931Z,4.30
2018-08-04T14:05:14.044Z,4.50
2018-08-04T14:07:42.177Z,4.90
2018-08-04T14:10:10.306Z,3.75
2018-08-04T14:12:38.222Z,4.20
2018-08-04T14:15:06.312Z,4.25
2018-08-04T14:17:34.483Z,4.33
2018-08-04T14:20:02.298Z,4.50
2018-08-04T14:22:30.429Z,4.10
2018-08-04T14:24:58.493Z,4.33
2018-08-04T14:27:26.595Z,4.25
2018-08-04T14:29:54.695Z,4.87
2018-08-04T14:32:22.796Z,4.62
2018-08-04T14:34:50.897Z,4.90
2018-08-04T14:37:19.112Z,5.08
2018-08-04T14:39:47.200Z,4.90
2018-08-04T14:42:15.349Z,5.15
2018-08-04T14:44:43.476Z,4.53
2018-08-04T14:47:11.583Z,4.62
2018-08-04T14:49:39.692Z,5.80
2018-08-04T14:52:07.734Z,4.87
2018-08-04T14:54:35.801Z,4.85
2018-08-04T14:57:03.900Z,5.03
2018-08-04T14:59:31.847Z,5.37
2018-08-04T15:01:59.963Z,5.50
2018-08-04T15:04:28.118Z,4.87
2018-08-04T15:06:56.312Z,5.17
2018-08-04T15:09:24.443Z,5.20
2018-08-04T15:11:52.591Z,4.95
2018-08-04T15:14:20.680Z,5.90
2018-08-04T15:16:48.803Z,4.90
2018-08-04T15:19:16.909Z,4.80
2018-08-04T15:21:45.007Z,5.53
2018-08-04T15:24:13.123Z,4.85
2018-08-04T15:26:41.220Z,4.90
2018-08-04T15:29:09.321Z,5.03
2018-08-04T15:31:37.363Z,5.17
2018-08-04T15:34:05.529Z,5.45
2018-08-04T15:36:33.589Z,5.15
2018-08-04T15:39:01.676Z,5.15
2018-08-04T15:41:29.801Z,5.35
2018-08-04T15:43:58.005Z,5.37
2018-08-04T15:46:25.893Z,5.33
2018-08-04T15:48:54.093Z,5.58
2018-08-04T15:51:22.147Z,6.03
2018-08-04T15:53:50.257Z,5.60
2018-08-04T15:56:18.366Z,5.45
2018-08-04T15:58:46.497Z,5.30
2018-08-04T16:01:14.533Z,5.67
2018-08-04T16:03:42.636Z,5.53
2018-08-04T16:06:10.756Z,5.58
2018-08-04T16:08:39.076Z,5.97
2018-08-04T16:11:07.330Z,6.70
2018-08-04T16:13:35.421Z,5.92
2018-08-04T16:16:03.506Z,5.67
2018-08-04T16:18:31.611Z,5.45
2018-08-04T16:20:59.721Z,5.95
2018-08-04T16:23:27.797Z,5.95
2018-08-04T16:25:55.879Z,5.42
2018-08-04T16:28:23.992Z,5.87
2018-08-04T16:30:52.096Z,5.78
2018-08-04T16:33:20.179Z,5.80
2018-08-04T16:35:48.053Z,5.62
2018-08-04T16:38:16.184Z,5.53
2018-08-04T16:40:44.275Z,5.30
2018-08-04T16:43:12.347Z,5.28
2018-08-04T16:45:40.427Z,5.25
2018-08-04T16:48:08.322Z,5.60
2018-08-04T16:50:36.423Z,5.22
2018-08-04T16:53:04.571Z,5.28
2018-08-04T16:55:32.812Z,5.47
2018-08-04T16:58:00.946Z,5.28
2018-08-04T17:00:29.089Z,5.30
2018-08-04T17:02:57.208Z,5.53
2018-08-04T17:05:25.319Z,5.00
2018-08-04T17:07:53.450Z,4.72
2018-08-04T17:10:21.547Z,5.00
2018-08-04T17:12:49.631Z,4.33
2018-08-04T17:15:17.802Z,5.05
2018-08-04T17:17:45.885Z,4.62
2018-08-04T17:20:13.980Z,4.33
2018-08-04T17:22:42.075Z,4.40
2018-08-04T17:25:10.172Z,4.40
2018-08-04T17:27:38.259Z,4.37
2018-08-04T17:30:06.566Z,4.35
2018-08-04T17:32:34.692Z,4.80
2018-08-04T17:35:02.778Z,4.33
2018-08-04T17:37:30.931Z,4.55
2018-08-04T17:39:58.968Z,4.70
2018-08-04T17:42:27.054Z,4.47
2018-08-04T17:44:55.151Z,4.50
2018-08-04T17:47:23.324Z,4.45
2018-08-04T17:49:51.418Z,4.53
2018-08-04T17:52:19.595Z,4.58
2018-08-04T17:54:47.688Z,4.17
2018-08-04T17:57:15.852Z,4.50
2018-08-04T17:59:43.923Z,4.20
2018-08-04T18:02:12.004Z,4.50
2018-08-04T18:04:40.112Z,4.40
2018-08-04T18:07:08.203Z,4.37
2018-08-04T18:09:36.323Z,3.92
2018-08-04T18:12:04.418Z,3.87
2018-08-04T18:14:32.514Z,3.95
2018-08-04T18:17:00.992Z,4.53
2018-08-04T18:19:29.088Z,4.05
2018-08-04T18:21:57.195Z,4.35
2018-08-04T18:24:25.283Z,4.10
2018-08-04T18:26:53.661Z,4.10
2018-08-04T18:29:21.775Z,3.75
2018-08-04T18:31:49.738Z,3.92
2018-08-04T18:34:17.887Z,4.10
2018-08-04T18:36:46.021Z,4.20
2018-08-04T18:39:14.131Z,3.80
2018-08-04T18:41:42.068Z,4.28
2018-08-04T18:44:10.195Z,3.77
2018-08-04T18:46:38.254Z,3.58
2018-08-04T18:49:06.443Z,3.58
2018-08-04T18:51:34.627Z,3.83
2018-08-04T18:54:02.788Z,4.20
2018-08-04T18:56:30.851Z,3.45
2018-08-04T18:58:58.940Z,4.17
2018-08-04T19:01:27.098Z,3.47
2018-08-04T19:03:55.435Z,3.40
2018-08-04T19:06:23.609Z,3.72
2018-08-04T19:08:51.690Z,4.08
2018-08-04T19:11:19.803Z,3.93
2018-08-04T19:13:47.903Z,3.75
2018-08-04T19:16:16.940Z,4.15
2018-08-04T19:18:45.739Z,4.97
2018-08-04T19:21:13.878Z,4.85
2018-08-04T19:23:42.072Z,5.33
2018-08-04T19:26:10.180Z,5.00
2018-08-04T19:28:38.365Z,5.00
2018-08-04T19:31:06.420Z,5.77
2018-08-04T19:33:34.836Z,5.50
2018-08-04T19:36:02.922Z,5.30
2018-08-04T19:38:31.058Z,5.37
2018-08-04T19:40:59.124Z,5.63
2018-08-04T19:43:26.994Z,5.17
2018-08-04T19:45:55.104Z,6.20
2018-08-04T19:48:23.350Z,4.70
2018-08-04T19:50:51.473Z,4.70
2018-08-04T19:53:19.571Z,4.70
2018-08-04T19:55:47.667Z,5.33
2018-08-04T19:58:15.723Z,5.00
2018-08-04T20:00:43.840Z,4.97
2018-08-04T20:03:11.920Z,5.30
2018-08-04T20:05:40.024Z,5.40
2018-08-04T20:08:08.189Z,5.63
2018-08-04T20:10:36.515Z,5.50
2018-08-04T20:13:04.821Z,5.40
2018-08-04T20:15:32.943Z,5.50
2018-08-04T20:18:01.263Z,5.60
2018-08-04T20:20:29.370Z,5.37
2018-08-04T20:22:57.479Z,5.57
2018-08-04T20:25:25.606Z,4.80
2018-08-04T20:27:53.731Z,5.27
2018-08-04T20:30:21.868Z,4.90
2018-08-04T20:32:49.992Z,5.80
2018-08-04T20:35:18.148Z,5.40
2018-08-04T20:37:46.039Z,5.87
2018-08-04T20:40:14.191Z,6.50
2018-08-04T20:42:42.333Z,4.93
2018-08-04T20:45:10.425Z,5.40
2018-08-04T20:47:38.620Z,5.10
2018-08-04T20:50:06.708Z,5.17
2018-08-04T20:52:34.900Z,5.57
2018-08-04T20:55:02.992Z,5.33
2018-08-04T20:57:31.117Z,5.47
2018-08-04T20:59:59.121Z,5.20
2018-08-04T21:02:27.244Z,5.47
2018-08-04T21:04:55.368Z,5.20
2018-08-04T21:07:23.478Z,4.60
2018-08-04T21:09:51.824Z,5.27
2018-08-04T21:12:19.951Z,5.87
2018-08-04T21:14:48.033Z,4.83
2018-08-04T21:17:16.094Z,5.30
2018-08-04T21:19:44.168Z,4.80
2018-08-04T21:22:12.266Z,5.50
2018-08-04T21:24:40.395Z,4.93
2018-08-04T21:27:08.447Z,5.17
2018-08-04T21:29:36.521Z,5.27
2018-08-04T21:32:04.602Z,5.10
2018-08-04T21:34:32.724Z,5.33
2018-08-04T21:37:00.812Z,4.90
2018-08-04T21:39:28.925Z,4.93
2018-08-04T21:41:57.019Z,4.70
2018-08-04T21:44:25.112Z,5.00
2018-08-04T21:46:53.219Z,4.67
2018-08-04T21:49:21.480Z,4.70
2018-08-04T21:51:50.697Z,4.37
2018-08-04T21:54:19.917Z,4.40
2018-08-04T21:56:47.642Z,4.07
2018-08-04T21:59:15.726Z,3.87
2018-08-04T22:01:49.221Z,4.23
2018-08-04T22:04:17.336Z,4.87
2018-08-04T22:07:55.012Z,4.30
2018-08-04T22:10:23.111Z,5.00
2018-08-04T22:12:51.246Z,5.40
2018-08-04T22:15:19.356Z,4.90
2018-08-04T22:17:47.538Z,4.77
2018-08-04T22:20:16.980Z,4.80
2018-08-04T22:22:44.979Z,4.53
2018-08-04T22:25:18.347Z,4.60
2018-08-04T22:27:46.480Z,4.90
2018-08-04T22:30:15.707Z,4.80
2018-08-04T22:32:44.419Z,4.70
2018-08-04T22:35:12.556Z,4.73
2018-08-04T22:37:41.081Z,4.67
2018-08-04T22:40:10.196Z,4.63
2018-08-04T22:42:38.656Z,4.50
2018-08-04T22:45:49.638Z,4.70
2018-08-04T22:48:17.716Z,4.63
2018-08-04T22:50:46.060Z,4.30
2018-08-04T22:53:14.277Z,4.00
2018-08-04T22:55:42.878Z,4.13
2018-08-04T22:58:11.536Z,4.00
2018-08-04T23:00:40.374Z,4.03
2018-08-04T23:03:08.504Z,4.60
2018-08-04T23:05:36.977Z,4.40
2018-08-04T23:08:05.215Z,4.50
2018-08-04T23:10:33.344Z,4.30
2018-08-04T23:13:01.479Z,4.50
2018-08-04T23:15:29.887Z,4.30
2018-08-04T23:17:58.359Z,4.03
2018-08-04T23:20:27.048Z,4.60
2018-08-04T23:22:55.144Z,4.80
2018-08-04T23:25:23.238Z,4.63
2018-08-04T23:27:52.320Z,4.13
2018-08-04T23:30:21.123Z,4.80
2018-08-04T23:32:49.842Z,4.33
2018-08-04T23:35:17.911Z,5.30
2018-08-04T23:37:46.145Z,4.37
2018-08-04T23:40:14.235Z,4.37
2018-08-04T23:42:42.357Z,4.93
2018-08-04T23:45:10.420Z,5.00
2018-08-04T23:47:38.515Z,4.63
2018-08-04T23:50:06.646Z,4.70
2018-08-04T23:52:34.738Z,4.50
2018-08-04T23:55:02.807Z,4.63
2018-08-04T23:57:31.098Z,4.60
2018-08-04T23:59:59.210Z,4.27
